sensor_id;sensor_type;location;lat;lon;timestamp;temperature;humidity
18191;DHT22;47004;51.366;12.348;2022-09-14T00:01:44;17.30;99.90
18191;DHT22;47004;51.366;12.348;2022-09-14T00:03:51;17.20;99.90
18191;DHT22;47004;51.366;12.348;2022-09-14T00:05:53;17.30;99.90
18191;DHT22;47004;51.366;12.348;2022-09-14T00:07:55;17.30;99.90
18191;DHT22;47004;51.366;12.348;2022-09-14T00:09:57;17.20;99.90
18191;DHT22;47004;51.366;12.348;2022-09-14T00:11:58;17.20;99.90
18191;DHT22;47004;51.366;12.348;2022-09-14T00:14:01;17.20;99.90
18191;DHT22;47004;51.366;12.348;2022-09-14T00:16:05;17.20;99.90
18191;DHT22;47004;51.366;12.348;2022-09-14T00:18:09;17.10;99.90
18191;DHT22;47004;51.366;12.348;2022-09-14T00:20:12;17.10;99.90
18191;DHT22;47004;51.366;12.348;2022-09-14T00:22:14;17.10;99.90
18191;DHT22;47004;51.366;12.348;2022-09-14T00:24:16;17.10;99.90
18191;DHT22;47004;51.366;12.348;2022-09-14T00:26:20;17.10;99.90
18191;DHT22;47004;51.366;12.348;2022-09-14T00:28:22;17.10;99.90
18191;DHT22;47004;51.366;12.348;2022-09-14T00:30:24;17.10;99.90
18191;DHT22;47004;51.366;12.348;2022-09-14T00:32:27;17.10;99.90
18191;DHT22;47004;51.366;12.348;2022-09-14T00:34:29;17.10;99.90
18191;DHT22;47004;51.366;12.348;2022-09-14T00:36:37;17.10;99.90
18191;DHT22;47004;51.366;12.348;2022-09-14T00:38:39;17.10;99.90
18191;DHT22;47004;51.366;12.348;2022-09-14T00:40:41;17.10;99.90
18191;DHT22;47004;51.366;12.348;2022-09-14T00:42:43;17.10;99.90
18191;DHT22;47004;51.366;12.348;2022-09-14T00:44:59;17.10;99.90
18191;DHT22;47004;51.366;12.348;2022-09-14T00:47:01;17.10;99.90
18191;DHT22;47004;51.366;12.348;2022-09-14T00:49:05;17.10;99.90
18191;DHT22;47004;51.366;12.348;2022-09-14T00:51:08;17.10;99.90
18191;DHT22;47004;51.366;12.348;2022-09-14T00:53:11;17.10;99.90
18191;DHT22;47004;51.366;12.348;2022-09-14T00:55:16;17.10;99.90
18191;DHT22;47004;51.366;12.348;2022-09-14T00:57:19;17.10;99.90
18191;DHT22;47004;51.366;12.348;2022-09-14T00:59:24;17.10;99.90
18191;DHT22;47004;51.366;12.348;2022-09-14T01:01:27;17.10;99.90
18191;DHT22;47004;51.366;12.348;2022-09-14T01:03:29;17.10;99.90
18191;DHT22;47004;51.366;12.348;2022-09-14T01:05:42;17.10;99.90
18191;DHT22;47004;51.366;12.348;2022-09-14T01:08:06;17.10;99.90
18191;DHT22;47004;51.366;12.348;2022-09-14T01:10:22;17.10;99.90
18191;DHT22;47004;51.366;12.348;2022-09-14T01:12:32;17.10;99.90
18191;DHT22;47004;51.366;12.348;2022-09-14T01:14:42;17.10;99.90
18191;DHT22;47004;51.366;12.348;2022-09-14T01:16:51;17.00;99.90
18191;DHT22;47004;51.366;12.348;2022-09-14T01:18:57;17.10;99.90
18191;DHT22;47004;51.366;12.348;2022-09-14T01:21:03;17.10;99.90
18191;DHT22;47004;51.366;12.348;2022-09-14T01:23:09;17.00;99.90
18191;DHT22;47004;51.366;12.348;2022-09-14T01:25:27;17.10;99.90
18191;DHT22;47004;51.366;12.348;2022-09-14T01:27:34;17.10;99.90
18191;DHT22;47004;51.366;12.348;2022-09-14T01:29:43;17.10;99.90
18191;DHT22;47004;51.366;12.348;2022-09-14T01:31:51;17.10;99.90
18191;DHT22;47004;51.366;12.348;2022-09-14T01:34:00;17.10;99.90
18191;DHT22;47004;51.366;12.348;2022-09-14T01:36:07;17.00;99.90
18191;DHT22;47004;51.366;12.348;2022-09-14T01:38:16;17.10;99.90
18191;DHT22;47004;51.366;12.348;2022-09-14T01:40:23;17.10;99.90
18191;DHT22;47004;51.366;12.348;2022-09-14T01:42:27;17.10;99.90
18191;DHT22;47004;51.366;12.348;2022-09-14T01:44:36;17.00;99.90
18191;DHT22;47004;51.366;12.348;2022-09-14T01:46:43;17.00;99.90
18191;DHT22;47004;51.366;12.348;2022-09-14T01:48:50;17.10;99.90
18191;DHT22;47004;51.366;12.348;2022-09-14T01:50:56;17.10;99.90
18191;DHT22;47004;51.366;12.348;2022-09-14T01:53:04;17.00;99.90
18191;DHT22;47004;51.366;12.348;2022-09-14T01:55:10;17.00;99.90
18191;DHT22;47004;51.366;12.348;2022-09-14T01:57:18;17.00;99.90
18191;DHT22;47004;51.366;12.348;2022-09-14T01:59:23;17.00;99.90
18191;DHT22;47004;51.366;12.348;2022-09-14T02:01:30;17.00;99.90
18191;DHT22;47004;51.366;12.348;2022-09-14T02:03:39;17.00;99.90
18191;DHT22;47004;51.366;12.348;2022-09-14T02:05:46;17.00;99.90
18191;DHT22;47004;51.366;12.348;2022-09-14T02:07:51;17.00;99.90
18191;DHT22;47004;51.366;12.348;2022-09-14T02:09:54;17.00;99.90
18191;DHT22;47004;51.366;12.348;2022-09-14T02:11:56;17.00;99.90
18191;DHT22;47004;51.366;12.348;2022-09-14T02:14:00;17.00;99.90
18191;DHT22;47004;51.366;12.348;2022-09-14T02:16:02;17.00;99.90
18191;DHT22;47004;51.366;12.348;2022-09-14T02:18:06;17.00;99.90
18191;DHT22;47004;51.366;12.348;2022-09-14T02:20:13;17.00;99.90
18191;DHT22;47004;51.366;12.348;2022-09-14T02:22:16;17.00;99.90
18191;DHT22;47004;51.366;12.348;2022-09-14T02:24:18;17.00;99.90
18191;DHT22;47004;51.366;12.348;2022-09-14T02:26:21;17.00;99.90
18191;DHT22;47004;51.366;12.348;2022-09-14T02:28:23;17.00;99.90
18191;DHT22;47004;51.366;12.348;2022-09-14T02:30:26;16.90;99.90
18191;DHT22;47004;51.366;12.348;2022-09-14T02:32:33;16.90;99.90
18191;DHT22;47004;51.366;12.348;2022-09-14T02:34:45;16.90;99.90
18191;DHT22;47004;51.366;12.348;2022-09-14T02:36:56;16.90;99.90
18191;DHT22;47004;51.366;12.348;2022-09-14T02:39:02;16.90;99.90
18191;DHT22;47004;51.366;12.348;2022-09-14T02:41:11;16.90;99.90
18191;DHT22;47004;51.366;12.348;2022-09-14T02:43:25;16.90;99.90
18191;DHT22;47004;51.366;12.348;2022-09-14T02:45:33;16.90;99.90
18191;DHT22;47004;51.366;12.348;2022-09-14T02:47:49;16.90;99.90
18191;DHT22;47004;51.366;12.348;2022-09-14T02:49:59;16.90;99.90
18191;DHT22;47004;51.366;12.348;2022-09-14T02:52:10;16.90;99.90
18191;DHT22;47004;51.366;12.348;2022-09-14T02:54:15;16.90;99.90
18191;DHT22;47004;51.366;12.348;2022-09-14T02:56:18;16.80;99.90
18191;DHT22;47004;51.366;12.348;2022-09-14T02:58:20;16.80;99.90
18191;DHT22;47004;51.366;12.348;2022-09-14T03:00:22;16.80;99.90
18191;DHT22;47004;51.366;12.348;2022-09-14T03:02:24;16.80;99.90
18191;DHT22;47004;51.366;12.348;2022-09-14T03:04:26;16.80;99.90
18191;DHT22;47004;51.366;12.348;2022-09-14T03:06:30;16.80;99.90
18191;DHT22;47004;51.366;12.348;2022-09-14T03:08:32;16.80;99.90
18191;DHT22;47004;51.366;12.348;2022-09-14T03:10:34;16.80;99.90
18191;DHT22;47004;51.366;12.348;2022-09-14T03:12:37;16.80;99.90
18191;DHT22;47004;51.366;12.348;2022-09-14T03:14:39;16.80;99.90
18191;DHT22;47004;51.366;12.348;2022-09-14T03:16:41;16.80;99.90
18191;DHT22;47004;51.366;12.348;2022-09-14T03:18:43;16.80;99.90
18191;DHT22;47004;51.366;12.348;2022-09-14T03:20:45;16.80;99.90
18191;DHT22;47004;51.366;12.348;2022-09-14T03:22:48;16.80;99.90
18191;DHT22;47004;51.366;12.348;2022-09-14T03:24:50;16.80;99.90
18191;DHT22;47004;51.366;12.348;2022-09-14T03:26:52;16.80;99.90
18191;DHT22;47004;51.366;12.348;2022-09-14T03:28:56;16.80;99.90
18191;DHT22;47004;51.366;12.348;2022-09-14T03:30:59;16.80;99.90
18191;DHT22;47004;51.366;12.348;2022-09-14T03:33:01;16.80;99.90
18191;DHT22;47004;51.366;12.348;2022-09-14T03:35:04;16.80;99.90
18191;DHT22;47004;51.366;12.348;2022-09-14T03:37:07;16.80;99.90
18191;DHT22;47004;51.366;12.348;2022-09-14T03:39:10;16.70;99.90
18191;DHT22;47004;51.366;12.348;2022-09-14T03:41:13;16.70;99.90
18191;DHT22;47004;51.366;12.348;2022-09-14T03:43:15;16.70;99.90
18191;DHT22;47004;51.366;12.348;2022-09-14T03:45:18;16.70;99.90
18191;DHT22;47004;51.366;12.348;2022-09-14T03:47:22;16.70;99.90
18191;DHT22;47004;51.366;12.348;2022-09-14T03:49:24;16.70;99.90
18191;DHT22;47004;51.366;12.348;2022-09-14T03:51:26;16.70;99.90
18191;DHT22;47004;51.366;12.348;2022-09-14T03:53:28;16.70;99.90
18191;DHT22;47004;51.366;12.348;2022-09-14T03:55:31;16.70;99.90
18191;DHT22;47004;51.366;12.348;2022-09-14T03:57:33;16.70;99.90
18191;DHT22;47004;51.366;12.348;2022-09-14T03:59:35;16.70;99.90
18191;DHT22;47004;51.366;12.348;2022-09-14T04:01:37;16.70;99.90
18191;DHT22;47004;51.366;12.348;2022-09-14T04:03:39;16.60;99.90
18191;DHT22;47004;51.366;12.348;2022-09-14T04:05:41;16.60;99.90
18191;DHT22;47004;51.366;12.348;2022-09-14T04:07:44;16.60;99.90
18191;DHT22;47004;51.366;12.348;2022-09-14T04:09:46;16.60;99.90
18191;DHT22;47004;51.366;12.348;2022-09-14T04:11:49;16.60;99.90
18191;DHT22;47004;51.366;12.348;2022-09-14T04:13:52;16.60;99.90
18191;DHT22;47004;51.366;12.348;2022-09-14T04:15:58;16.60;99.90
18191;DHT22;47004;51.366;12.348;2022-09-14T04:18:00;16.60;99.90
18191;DHT22;47004;51.366;12.348;2022-09-14T04:20:02;16.60;99.90
18191;DHT22;47004;51.366;12.348;2022-09-14T04:22:04;16.60;99.90
18191;DHT22;47004;51.366;12.348;2022-09-14T04:24:06;16.60;99.90
18191;DHT22;47004;51.366;12.348;2022-09-14T04:26:10;16.60;99.90
18191;DHT22;47004;51.366;12.348;2022-09-14T04:28:14;16.50;99.90
18191;DHT22;47004;51.366;12.348;2022-09-14T04:30:16;16.50;99.90
18191;DHT22;47004;51.366;12.348;2022-09-14T04:32:17;16.50;99.90
18191;DHT22;47004;51.366;12.348;2022-09-14T04:34:19;16.50;99.90
18191;DHT22;47004;51.366;12.348;2022-09-14T04:36:22;16.50;99.90
18191;DHT22;47004;51.366;12.348;2022-09-14T04:38:28;16.50;99.90
18191;DHT22;47004;51.366;12.348;2022-09-14T04:40:30;16.50;99.90
18191;DHT22;47004;51.366;12.348;2022-09-14T04:42:31;16.50;99.90
18191;DHT22;47004;51.366;12.348;2022-09-14T04:44:35;16.50;99.90
18191;DHT22;47004;51.366;12.348;2022-09-14T04:46:37;16.50;99.90
18191;DHT22;47004;51.366;12.348;2022-09-14T04:48:41;16.50;99.90
18191;DHT22;47004;51.366;12.348;2022-09-14T04:50:43;16.50;99.90
18191;DHT22;47004;51.366;12.348;2022-09-14T04:52:45;16.50;99.90
18191;DHT22;47004;51.366;12.348;2022-09-14T04:54:47;16.50;99.90
18191;DHT22;47004;51.366;12.348;2022-09-14T04:56:49;16.50;99.90
18191;DHT22;47004;51.366;12.348;2022-09-14T04:58:52;16.50;99.90
18191;DHT22;47004;51.366;12.348;2022-09-14T05:01:00;16.50;99.90
18191;DHT22;47004;51.366;12.348;2022-09-14T05:03:02;16.40;99.90
18191;DHT22;47004;51.366;12.348;2022-09-14T05:05:05;16.50;99.90
18191;DHT22;47004;51.366;12.348;2022-09-14T05:07:07;16.40;99.90
18191;DHT22;47004;51.366;12.348;2022-09-14T05:09:10;16.40;99.90
18191;DHT22;47004;51.366;12.348;2022-09-14T05:11:16;16.40;99.90
18191;DHT22;47004;51.366;12.348;2022-09-14T05:13:18;16.40;99.90
18191;DHT22;47004;51.366;12.348;2022-09-14T05:15:19;16.40;99.90
18191;DHT22;47004;51.366;12.348;2022-09-14T05:17:23;16.40;99.90
18191;DHT22;47004;51.366;12.348;2022-09-14T05:19:25;16.50;99.90
18191;DHT22;47004;51.366;12.348;2022-09-14T05:21:27;16.50;99.90
18191;DHT22;47004;51.366;12.348;2022-09-14T05:23:30;16.50;99.90
18191;DHT22;47004;51.366;12.348;2022-09-14T05:25:32;16.50;99.90
18191;DHT22;47004;51.366;12.348;2022-09-14T05:27:34;16.50;99.90
18191;DHT22;47004;51.366;12.348;2022-09-14T05:29:36;16.60;99.90
18191;DHT22;47004;51.366;12.348;2022-09-14T05:31:39;16.70;99.90
18191;DHT22;47004;51.366;12.348;2022-09-14T05:33:43;16.60;99.90
18191;DHT22;47004;51.366;12.348;2022-09-14T05:35:45;16.70;99.90
18191;DHT22;47004;51.366;12.348;2022-09-14T05:37:47;16.70;99.90
18191;DHT22;47004;51.366;12.348;2022-09-14T05:39:49;16.70;99.90
18191;DHT22;47004;51.366;12.348;2022-09-14T05:41:51;16.80;99.90
18191;DHT22;47004;51.366;12.348;2022-09-14T05:43:53;16.80;99.90
18191;DHT22;47004;51.366;12.348;2022-09-14T05:46:14;16.80;99.90
18191;DHT22;47004;51.366;12.348;2022-09-14T05:48:36;16.80;99.90
18191;DHT22;47004;51.366;12.348;2022-09-14T05:51:03;16.90;99.90
18191;DHT22;47004;51.366;12.348;2022-09-14T05:53:06;16.90;99.90
18191;DHT22;47004;51.366;12.348;2022-09-14T05:55:08;16.90;99.90
18191;DHT22;47004;51.366;12.348;2022-09-14T05:57:10;16.90;99.90
18191;DHT22;47004;51.366;12.348;2022-09-14T05:59:12;17.10;99.90
18191;DHT22;47004;51.366;12.348;2022-09-14T06:01:16;17.00;99.90
18191;DHT22;47004;51.366;12.348;2022-09-14T06:03:18;17.00;99.90
18191;DHT22;47004;51.366;12.348;2022-09-14T06:05:21;17.10;99.90
18191;DHT22;47004;51.366;12.348;2022-09-14T06:07:26;17.10;99.90
18191;DHT22;47004;51.366;12.348;2022-09-14T06:09:28;17.10;99.90
18191;DHT22;47004;51.366;12.348;2022-09-14T06:11:31;17.10;99.90
18191;DHT22;47004;51.366;12.348;2022-09-14T06:13:35;17.10;99.90
18191;DHT22;47004;51.366;12.348;2022-09-14T06:15:37;17.10;99.90
18191;DHT22;47004;51.366;12.348;2022-09-14T06:17:39;17.10;99.90
18191;DHT22;47004;51.366;12.348;2022-09-14T06:19:41;17.10;99.90
18191;DHT22;47004;51.366;12.348;2022-09-14T06:21:43;17.10;99.90
18191;DHT22;47004;51.366;12.348;2022-09-14T06:23:47;17.10;99.90
18191;DHT22;47004;51.366;12.348;2022-09-14T06:25:52;17.20;99.90
18191;DHT22;47004;51.366;12.348;2022-09-14T06:27:54;17.20;99.90
18191;DHT22;47004;51.366;12.348;2022-09-14T06:29:56;17.20;99.90
18191;DHT22;47004;51.366;12.348;2022-09-14T06:31:58;17.40;99.90
18191;DHT22;47004;51.366;12.348;2022-09-14T06:34:00;17.20;99.90
18191;DHT22;47004;51.366;12.348;2022-09-14T06:36:05;17.20;99.90
18191;DHT22;47004;51.366;12.348;2022-09-14T06:38:09;17.20;99.90
18191;DHT22;47004;51.366;12.348;2022-09-14T06:40:12;17.40;99.90
18191;DHT22;47004;51.366;12.348;2022-09-14T06:42:14;17.20;99.90
18191;DHT22;47004;51.366;12.348;2022-09-14T06:44:16;17.20;99.90
18191;DHT22;47004;51.366;12.348;2022-09-14T06:46:20;17.20;99.90
18191;DHT22;47004;51.366;12.348;2022-09-14T06:48:23;17.20;99.90
18191;DHT22;47004;51.366;12.348;2022-09-14T06:50:25;17.20;99.90
18191;DHT22;47004;51.366;12.348;2022-09-14T06:52:26;17.20;99.90
18191;DHT22;47004;51.366;12.348;2022-09-14T06:54:29;17.20;99.90
18191;DHT22;47004;51.366;12.348;2022-09-14T06:56:33;17.20;99.90
18191;DHT22;47004;51.366;12.348;2022-09-14T06:58:35;17.20;99.90
18191;DHT22;47004;51.366;12.348;2022-09-14T07:00:37;17.20;99.90
18191;DHT22;47004;51.366;12.348;2022-09-14T07:02:39;17.30;99.90
18191;DHT22;47004;51.366;12.348;2022-09-14T07:04:41;17.20;99.90
18191;DHT22;47004;51.366;12.348;2022-09-14T07:06:44;17.30;99.90
18191;DHT22;47004;51.366;12.348;2022-09-14T07:08:47;17.20;99.90
18191;DHT22;47004;51.366;12.348;2022-09-14T07:10:55;17.20;99.90
18191;DHT22;47004;51.366;12.348;2022-09-14T07:12:59;17.20;99.90
18191;DHT22;47004;51.366;12.348;2022-09-14T07:15:01;17.20;99.90
18191;DHT22;47004;51.366;12.348;2022-09-14T07:17:06;17.20;99.90
18191;DHT22;47004;51.366;12.348;2022-09-14T07:19:10;17.20;99.90
18191;DHT22;47004;51.366;12.348;2022-09-14T07:21:16;17.20;99.90
18191;DHT22;47004;51.366;12.348;2022-09-14T07:23:18;17.20;99.90
18191;DHT22;47004;51.366;12.348;2022-09-14T07:25:19;17.30;99.90
18191;DHT22;47004;51.366;12.348;2022-09-14T07:27:21;17.20;99.90
18191;DHT22;47004;51.366;12.348;2022-09-14T07:29:24;17.30;99.90
18191;DHT22;47004;51.366;12.348;2022-09-14T07:31:29;17.30;99.90
18191;DHT22;47004;51.366;12.348;2022-09-14T07:33:31;17.30;99.90
18191;DHT22;47004;51.366;12.348;2022-09-14T07:35:33;17.30;99.90
18191;DHT22;47004;51.366;12.348;2022-09-14T07:37:35;17.30;99.90
18191;DHT22;47004;51.366;12.348;2022-09-14T07:39:36;17.30;99.90
18191;DHT22;47004;51.366;12.348;2022-09-14T07:41:39;17.30;99.90
18191;DHT22;47004;51.366;12.348;2022-09-14T07:43:41;17.30;99.90
18191;DHT22;47004;51.366;12.348;2022-09-14T07:45:44;17.40;99.90
18191;DHT22;47004;51.366;12.348;2022-09-14T07:47:46;17.40;99.90
18191;DHT22;47004;51.366;12.348;2022-09-14T07:49:48;17.40;99.90
18191;DHT22;47004;51.366;12.348;2022-09-14T07:51:51;17.40;99.90
18191;DHT22;47004;51.366;12.348;2022-09-14T07:53:54;17.40;99.90
18191;DHT22;47004;51.366;12.348;2022-09-14T07:55:58;17.50;99.90
18191;DHT22;47004;51.366;12.348;2022-09-14T07:58:00;17.50;99.90
18191;DHT22;47004;51.366;12.348;2022-09-14T08:00:03;17.50;99.90
18191;DHT22;47004;51.366;12.348;2022-09-14T08:02:09;17.50;99.90
18191;DHT22;47004;51.366;12.348;2022-09-14T08:04:11;17.50;99.90
18191;DHT22;47004;51.366;12.348;2022-09-14T08:06:14;17.50;99.90
18191;DHT22;47004;51.366;12.348;2022-09-14T08:08:16;17.50;99.90
18191;DHT22;47004;51.366;12.348;2022-09-14T08:10:18;17.50;99.90
18191;DHT22;47004;51.366;12.348;2022-09-14T08:12:20;17.50;99.90
18191;DHT22;47004;51.366;12.348;2022-09-14T08:14:22;17.50;99.90
18191;DHT22;47004;51.366;12.348;2022-09-14T08:16:25;17.60;99.90
18191;DHT22;47004;51.366;12.348;2022-09-14T08:18:29;17.50;99.90
18191;DHT22;47004;51.366;12.348;2022-09-14T08:20:31;17.60;99.90
18191;DHT22;47004;51.366;12.348;2022-09-14T08:22:34;17.60;99.90
18191;DHT22;47004;51.366;12.348;2022-09-14T08:24:36;17.60;99.90
18191;DHT22;47004;51.366;12.348;2022-09-14T08:26:38;17.60;99.90
18191;DHT22;47004;51.366;12.348;2022-09-14T08:28:41;17.60;99.90
18191;DHT22;47004;51.366;12.348;2022-09-14T08:30:43;17.70;99.90
18191;DHT22;47004;51.366;12.348;2022-09-14T08:32:45;17.70;99.90
18191;DHT22;47004;51.366;12.348;2022-09-14T08:34:48;17.70;99.90
18191;DHT22;47004;51.366;12.348;2022-09-14T08:36:51;17.70;99.90
18191;DHT22;47004;51.366;12.348;2022-09-14T08:38:53;17.70;99.90
18191;DHT22;47004;51.366;12.348;2022-09-14T08:40:57;17.80;99.90
18191;DHT22;47004;51.366;12.348;2022-09-14T08:43:02;17.70;99.90
18191;DHT22;47004;51.366;12.348;2022-09-14T08:45:05;17.70;99.90
18191;DHT22;47004;51.366;12.348;2022-09-14T08:47:11;17.70;99.90
18191;DHT22;47004;51.366;12.348;2022-09-14T08:49:19;17.70;99.90
18191;DHT22;47004;51.366;12.348;2022-09-14T08:51:24;17.70;99.90
18191;DHT22;47004;51.366;12.348;2022-09-14T08:53:26;17.80;99.90
18191;DHT22;47004;51.366;12.348;2022-09-14T08:55:33;17.80;99.90
18191;DHT22;47004;51.366;12.348;2022-09-14T08:57:41;17.80;99.90
18191;DHT22;47004;51.366;12.348;2022-09-14T08:59:51;17.80;99.90
18191;DHT22;47004;51.366;12.348;2022-09-14T09:02:04;17.80;99.90
18191;DHT22;47004;51.366;12.348;2022-09-14T09:04:25;17.90;99.90
18191;DHT22;47004;51.366;12.348;2022-09-14T09:06:38;17.90;99.90
18191;DHT22;47004;51.366;12.348;2022-09-14T09:09:01;17.90;99.90
18191;DHT22;47004;51.366;12.348;2022-09-14T09:11:08;18.00;99.90
18191;DHT22;47004;51.366;12.348;2022-09-14T09:13:20;18.00;99.90
18191;DHT22;47004;51.366;12.348;2022-09-14T09:15:26;18.00;99.90
18191;DHT22;47004;51.366;12.348;2022-09-14T09:17:32;18.10;99.90
18191;DHT22;47004;51.366;12.348;2022-09-14T09:19:40;18.10;99.90
18191;DHT22;47004;51.366;12.348;2022-09-14T09:21:48;18.10;99.90
18191;DHT22;47004;51.366;12.348;2022-09-14T09:23:50;18.10;99.90
18191;DHT22;47004;51.366;12.348;2022-09-14T09:25:55;18.20;99.90
18191;DHT22;47004;51.366;12.348;2022-09-14T09:28:04;18.20;99.90
18191;DHT22;47004;51.366;12.348;2022-09-14T09:30:12;18.20;99.90
18191;DHT22;47004;51.366;12.348;2022-09-14T09:32:17;18.20;99.90
18191;DHT22;47004;51.366;12.348;2022-09-14T09:34:25;18.20;99.90
18191;DHT22;47004;51.366;12.348;2022-09-14T09:36:32;18.20;99.90
18191;DHT22;47004;51.366;12.348;2022-09-14T09:38:35;18.20;99.90
18191;DHT22;47004;51.366;12.348;2022-09-14T09:40:40;18.20;99.90
18191;DHT22;47004;51.366;12.348;2022-09-14T09:43:07;18.20;99.90
18191;DHT22;47004;51.366;12.348;2022-09-14T09:45:09;18.30;99.90
18191;DHT22;47004;51.366;12.348;2022-09-14T09:47:11;18.30;99.90
18191;DHT22;47004;51.366;12.348;2022-09-14T09:49:19;18.30;99.90
18191;DHT22;47004;51.366;12.348;2022-09-14T09:51:27;18.30;99.90
18191;DHT22;47004;51.366;12.348;2022-09-14T09:53:31;18.30;99.90
18191;DHT22;47004;51.366;12.348;2022-09-14T09:55:38;18.30;99.90
18191;DHT22;47004;51.366;12.348;2022-09-14T09:57:40;18.30;99.90
18191;DHT22;47004;51.366;12.348;2022-09-14T09:59:42;18.30;99.90
18191;DHT22;47004;51.366;12.348;2022-09-14T10:01:46;18.30;99.90
18191;DHT22;47004;51.366;12.348;2022-09-14T10:04:04;18.40;99.90
18191;DHT22;47004;51.366;12.348;2022-09-14T10:06:08;18.40;99.90
18191;DHT22;47004;51.366;12.348;2022-09-14T10:08:14;18.40;99.90
18191;DHT22;47004;51.366;12.348;2022-09-14T10:10:20;18.40;99.90
18191;DHT22;47004;51.366;12.348;2022-09-14T10:12:27;18.50;99.90
18191;DHT22;47004;51.366;12.348;2022-09-14T10:14:31;18.50;99.90
18191;DHT22;47004;51.366;12.348;2022-09-14T10:16:37;18.50;99.90
18191;DHT22;47004;51.366;12.348;2022-09-14T10:18:44;18.50;99.90
18191;DHT22;47004;51.366;12.348;2022-09-14T10:21:07;18.50;99.90
18191;DHT22;47004;51.366;12.348;2022-09-14T10:23:22;18.60;99.90
18191;DHT22;47004;51.366;12.348;2022-09-14T10:25:25;18.50;99.90
18191;DHT22;47004;51.366;12.348;2022-09-14T10:27:38;18.60;99.90
18191;DHT22;47004;51.366;12.348;2022-09-14T10:29:41;18.60;99.90
18191;DHT22;47004;51.366;12.348;2022-09-14T10:31:44;18.60;99.90
18191;DHT22;47004;51.366;12.348;2022-09-14T10:33:49;18.60;99.90
18191;DHT22;47004;51.366;12.348;2022-09-14T10:35:59;18.60;99.90
18191;DHT22;47004;51.366;12.348;2022-09-14T10:38:13;18.60;99.90
18191;DHT22;47004;51.366;12.348;2022-09-14T10:40:19;18.70;99.90
18191;DHT22;47004;51.366;12.348;2022-09-14T10:42:30;18.70;99.90
18191;DHT22;47004;51.366;12.348;2022-09-14T10:44:44;18.70;99.90
18191;DHT22;47004;51.366;12.348;2022-09-14T10:46:58;18.60;99.90
18191;DHT22;47004;51.366;12.348;2022-09-14T10:49:20;18.70;99.90
18191;DHT22;47004;51.366;12.348;2022-09-14T10:51:34;18.70;99.90
18191;DHT22;47004;51.366;12.348;2022-09-14T10:53:44;18.70;99.90
18191;DHT22;47004;51.366;12.348;2022-09-14T10:55:55;18.70;99.90
18191;DHT22;47004;51.366;12.348;2022-09-14T10:58:19;18.70;99.90
18191;DHT22;47004;51.366;12.348;2022-09-14T11:00:25;18.60;99.90
18191;DHT22;47004;51.366;12.348;2022-09-14T11:02:50;18.60;99.90
18191;DHT22;47004;51.366;12.348;2022-09-14T11:05:08;18.60;99.90
18191;DHT22;47004;51.366;12.348;2022-09-14T11:07:16;18.60;99.90
18191;DHT22;47004;51.366;12.348;2022-09-14T11:09:22;18.60;99.90
18191;DHT22;47004;51.366;12.348;2022-09-14T11:11:39;18.50;99.90
18191;DHT22;47004;51.366;12.348;2022-09-14T11:14:03;18.50;99.90
18191;DHT22;47004;51.366;12.348;2022-09-14T11:16:20;18.40;99.90
18191;DHT22;47004;51.366;12.348;2022-09-14T11:18:31;18.40;99.90
18191;DHT22;47004;51.366;12.348;2022-09-14T11:20:42;18.40;99.90
18191;DHT22;47004;51.366;12.348;2022-09-14T11:22:55;18.30;99.90
18191;DHT22;47004;51.366;12.348;2022-09-14T11:25:02;18.30;99.90
18191;DHT22;47004;51.366;12.348;2022-09-14T11:27:10;18.30;99.90
18191;DHT22;47004;51.366;12.348;2022-09-14T11:29:18;18.30;99.90
18191;DHT22;47004;51.366;12.348;2022-09-14T11:31:26;18.20;99.90
18191;DHT22;47004;51.366;12.348;2022-09-14T11:33:34;18.20;99.90
18191;DHT22;47004;51.366;12.348;2022-09-14T11:35:41;18.20;99.90
18191;DHT22;47004;51.366;12.348;2022-09-14T11:37:48;18.20;99.90
18191;DHT22;47004;51.366;12.348;2022-09-14T11:40:02;18.20;99.90
18191;DHT22;47004;51.366;12.348;2022-09-14T11:42:08;18.20;99.90
18191;DHT22;47004;51.366;12.348;2022-09-14T11:44:15;18.20;99.90
18191;DHT22;47004;51.366;12.348;2022-09-14T11:46:21;18.30;99.90
18191;DHT22;47004;51.366;12.348;2022-09-14T11:48:29;18.20;99.90
18191;DHT22;47004;51.366;12.348;2022-09-14T11:50:32;18.30;99.90
18191;DHT22;47004;51.366;12.348;2022-09-14T11:52:34;18.30;99.90
18191;DHT22;47004;51.366;12.348;2022-09-14T11:54:38;18.20;99.90
18191;DHT22;47004;51.366;12.348;2022-09-14T11:56:40;18.30;99.90
18191;DHT22;47004;51.366;12.348;2022-09-14T11:58:45;18.30;99.90
18191;DHT22;47004;51.366;12.348;2022-09-14T12:01:00;18.30;99.90
18191;DHT22;47004;51.366;12.348;2022-09-14T12:03:15;18.20;99.90
18191;DHT22;47004;51.366;12.348;2022-09-14T12:05:33;18.20;99.90
18191;DHT22;47004;51.366;12.348;2022-09-14T12:07:56;18.20;99.90
18191;DHT22;47004;51.366;12.348;2022-09-14T12:10:15;18.20;99.90
18191;DHT22;47004;51.366;12.348;2022-09-14T12:12:35;18.20;99.90
18191;DHT22;47004;51.366;12.348;2022-09-14T12:14:39;18.20;99.90
18191;DHT22;47004;51.366;12.348;2022-09-14T12:17:03;18.20;99.90
18191;DHT22;47004;51.366;12.348;2022-09-14T12:19:15;18.20;99.90
18191;DHT22;47004;51.366;12.348;2022-09-14T12:21:24;18.30;99.90
18191;DHT22;47004;51.366;12.348;2022-09-14T12:23:29;18.30;99.90
18191;DHT22;47004;51.366;12.348;2022-09-14T12:25:33;18.30;99.90
18191;DHT22;47004;51.366;12.348;2022-09-14T12:27:36;18.30;99.90
18191;DHT22;47004;51.366;12.348;2022-09-14T12:29:39;18.30;99.90
18191;DHT22;47004;51.366;12.348;2022-09-14T12:32:03;18.30;99.90
18191;DHT22;47004;51.366;12.348;2022-09-14T12:34:15;18.30;99.90
18191;DHT22;47004;51.366;12.348;2022-09-14T12:39:20;18.30;99.90
18191;DHT22;47004;51.366;12.348;2022-09-14T12:41:58;18.30;99.90
18191;DHT22;47004;51.366;12.348;2022-09-14T12:44:00;18.30;99.90
18191;DHT22;47004;51.366;12.348;2022-09-14T12:46:03;18.30;99.90
18191;DHT22;47004;51.366;12.348;2022-09-14T12:48:07;18.30;99.90
18191;DHT22;47004;51.366;12.348;2022-09-14T12:50:15;18.20;99.90
18191;DHT22;47004;51.366;12.348;2022-09-14T12:52:30;18.20;99.90
18191;DHT22;47004;51.366;12.348;2022-09-14T12:54:44;18.20;99.90
18191;DHT22;47004;51.366;12.348;2022-09-14T12:56:59;18.20;99.90
18191;DHT22;47004;51.366;12.348;2022-09-14T12:59:04;18.20;99.90
18191;DHT22;47004;51.366;12.348;2022-09-14T13:01:19;18.20;99.90
18191;DHT22;47004;51.366;12.348;2022-09-14T13:03:45;18.20;99.90
18191;DHT22;47004;51.366;12.348;2022-09-14T13:05:48;18.20;99.90